Latest Coastal Weather Observations for Devonport Airport

IDV60701

Issued at 3:51 pm EST Saturday 5 September 2015 (issued every 10 minutes, with the page automatically refreshed every 10 minutes)

About coastal observations | Map of coastal stations | Coastal observations for VIC | Marine services | Other Formats
Station Details ID: 091126 Name: DEVONPORT AIRPORT Lat: -41.17 Lon: 146.43 Height: 8.0 m
Data from the previous 72 hours. | See also: Recent months at Devonport Airport
Date/Time
EST
Temp

°C
Wind Pressure Rain
since 9am
mm
Weather Cloud Vis
km
Sea
Height
m
Swell
Dir
 
Speed
knots
Gust
knots
hPa Trend Height
m
Period
s
Dir
05/03:30pm 12.6 NNW 13 15 1021.0 - 0.0 - Partly cloudy 10 - - - -
05/03:00pm 12.7 NNW 11 14 1020.9 - 0.0 - Partly cloudy 10 - - - -
05/02:30pm 13.6 NNW 12 14 1020.8 - 0.0 - Partly cloudy 10 - - - -
05/02:00pm 14.1 NNW 10 12 1020.8 - 0.0 - - 10 - - - -
05/01:30pm 13.5 NNW 11 13 1020.8 - 0.0 - Partly cloudy 10 - - - -
05/01:00pm 13.9 NNW 10 12 1021.0 - 0.0 - Partly cloudy 10 - - - -
05/12:30pm 13.5 NNW 10 11 1021.3 - 0.0 - Partly cloudy 10 - - - -
05/12:00pm 13.2 NNW 8 10 1021.6 - 0.0 - Cloudy 10 - - - -
05/11:30am 14.2 SSE 4 9 1021.6 - 0.0 - Partly cloudy 10 - - - -
05/11:00am 14.2 SW 3 5 1021.6 - 0.0 - Partly cloudy 10 - - - -
05/10:30am 13.2 NE 5 8 1021.6 - 0.0 - Partly cloudy 10 - - - -
05/10:00am 12.8 WSW 5 8 1021.8 - 0.0 - - 10 - - - -
05/09:30am 11.3 WNW 5 7 1021.9 - 0.0 - - 10 - - - -
05/09:00am 10.3 WSW 6 8 1021.9 - 0.0 - - 10 - - - -
05/08:30am 9.4 W 7 8 1021.8 - 0.0 - - 10 - - - -
05/08:00am 8.8 W 8 9 1021.6 - 0.0 - - 10 - - - -
05/07:30am 8.1 W 6 7 1021.3 - 0.0 - - 10 - - - -
05/07:00am 7.5 S 4 5 1020.8 - 0.0 - - 10 - - - -
05/06:30am 6.7 WSW 5 6 1020.4 - 0.0 - - 10 - - - -
05/06:00am 7.4 WSW 6 10 1020.0 - 0.0 - - 10 - - - -
05/05:30am 8.2 W 11 15 1019.5 - 0.0 - - 10 - - - -
05/05:00am 8.6 WNW 15 19 1019.2 - 0.0 - - 10 - - - -
05/04:30am 8.8 W 14 20 1018.9 - 0.0 - - 10 - - - -
05/04:00am 9.0 WNW 16 18 1018.6 - 0.0 - - 10 - - - -
05/03:30am 9.0 WNW 16 19 1018.5 - 0.0 - - 10 - - - -
05/03:00am 9.0 WNW 16 19 1018.7 - 0.0 - - 10 - - - -
05/02:30am 9.1 WNW 14 18 1019.0 - 0.0 - - 10 - - - -
05/02:00am 9.2 WNW 15 19 1019.4 - 0.0 - - 10 - - - -
05/01:30am 9.3 WNW 15 19 1019.4 - 0.0 - - 10 - - - -
05/01:00am 9.2 WNW 14 17 1019.5 - 0.0 - - 10 - - - -
05/12:30am 9.3 WNW 14 17 1019.5 - 0.0 - - 10 - - - -
05/12:00am 8.7 W 11 14 1019.5 - 0.0 - - 10 - - - -
 
Date/Time
EST
Temp

°C
Wind Pressure Rain
since 9am
mm
Weather Cloud Vis
km
Sea
Height
m
Swell
Dir
 
Speed
knots
Gust
knots
hPa Trend Height
m
Period
s
Dir
04/11:30pm 8.6 W 10 14 1019.6 - 0.0 - - 10 - - - -
04/11:00pm 9.3 WNW 14 17 1019.7 - 0.0 - - 10 - - - -
04/10:30pm 9.4 WNW 14 16 1019.6 - 0.0 - - 10 - - - -
04/10:00pm 9.0 W 14 16 1019.7 - 0.0 - - 10 - - - -
04/09:30pm 9.8 WNW 17 20 1019.5 - 0.0 - - 10 - - - -
04/09:00pm 9.9 WNW 15 19 1019.5 - 0.0 - - 10 - - - -
04/08:30pm 10.0 WNW 15 19 1019.4 - 0.0 - - 10 - - - -
04/08:00pm 10.1 WNW 11 15 1019.3 - 0.0 - - 10 - - - -
04/07:30pm 9.7 W 11 14 1019.3 - 0.0 - - 10 - - - -
04/07:00pm 10.1 W 10 15 1019.1 - 0.0 - Partly cloudy 10 - - - -
04/06:30pm 11.0 W 14 19 1019.0 - 0.0 - Partly cloudy 10 - - - -
04/06:00pm 11.0 WSW 14 19 1018.7 - 0.0 - - 10 - - - -
04/05:30pm 12.2 WSW 15 23 1018.5 - 0.0 - Partly cloudy 10 - - - -
04/05:00pm 13.2 WSW 16 24 1018.1 - 0.0 - - 10 - - - -
04/04:39pm 13.6 WSW 15 25 1018.0 - 0.0 - - 10 - - - -
04/04:30pm 13.8 WSW 13 19 1018.0 - 0.0 - - 10 - - - -
04/04:16pm 13.9 WSW 16 26 1018.1 - 0.0 - - 10 - - - -
04/04:00pm 13.8 WSW 20 25 1018.0 - 0.0 - Partly cloudy 10 - - - -
04/03:30pm 14.6 W 20 25 1017.9 - 0.0 - - 10 - - - -
04/03:00pm 14.7 W 21 27 1017.9 - 0.0 - - 10 - - - -
04/02:45pm 14.8 WSW 17 28 1017.9 - 0.0 - - 10 - - - -
04/02:30pm 14.6 W 19 24 1018.1 - 0.0 - Partly cloudy 10 - - - -
04/02:00pm 14.2 W 20 27 1018.1 - 0.0 - - 10 - - - -
04/01:30pm 14.7 W 18 27 1018.3 - 0.0 - Partly cloudy 10 - - - -
04/01:26pm 15.3 W 16 27 1018.3 - 0.0 - Partly cloudy 10 - - - -
04/01:00pm 14.8 W 17 24 1018.6 - 0.0 - - 10 - - - -
04/12:30pm 14.8 W 17 23 1019.0 - 0.0 - - 10 - - - -
04/12:00pm 14.4 W 17 21 1019.5 - 0.0 - - 10 - - - -
04/11:30am 13.6 W 17 22 1019.9 - 0.0 - Partly cloudy 10 - - - -
04/11:00am 13.0 WSW 10 15 1020.5 - 0.0 - - 10 - - - -
04/10:30am 11.8 WNW 7 9 1020.9 - 0.0 - - 10 - - - -
04/10:00am 10.4 NW 10 13 1021.0 - 0.0 - - 10 - - - -
04/09:30am 9.9 WNW 11 13 1021.3 - 0.0 - - 10 - - - -
04/09:00am 9.0 WNW 10 13 1021.6 - 0.0 - - 10 - - - -
04/08:30am 8.7 W 7 11 1021.8 - 0.0 - - 10 - - - -
04/08:00am 6.8 S 5 6 1021.8 - 0.0 - - 10 - - - -
04/07:30am 5.4 SSW 5 8 1021.6 - 0.0 - - 10 - - - -
04/07:00am 3.7 SSW 5 7 1021.3 - 0.0 - - 10 - - - -
04/06:30am 4.8 SSW 7 10 1021.2 - 0.0 - - 10 - - - -
04/06:00am 5.1 SSW 6 9 1021.1 - 0.0 - - 10 - - - -
04/05:30am 4.9 SSW 6 7 1020.9 - 0.0 - - 10 - - - -
04/05:00am 5.7 SSW 7 8 1020.8 - 0.0 - - 10 - - - -
04/04:30am 5.8 SSE 7 8 1020.7 - 0.0 - - 10 - - - -
04/04:00am 6.0 S 7 8 1020.6 - 0.0 - - 10 - - - -
04/03:30am 6.9 S 7 9 1020.6 - 0.0 - Partly cloudy 10 - - - -
04/03:00am 8.1 NE 7 8 1020.5 - 0.0 - Cloudy 10 - - - -
04/02:30am 9.0 SSE 5 7 1020.8 - 0.0 - Cloudy 10 - - - -
04/02:00am 10.4 NNW 3 5 1021.0 - 0.0 - Cloudy 10 - - - -
04/01:30am 10.7 N 7 10 1021.1 - 0.0 - Cloudy 10 - - - -
04/01:00am 10.8 NE 10 12 1021.1 - 0.0 - Cloudy 10 - - - -
04/12:30am 10.7 NE 10 13 1021.0 - 0.0 - Cloudy 10 - - - -
04/12:00am 10.7 NE 8 11 1021.1 - 0.0 - Mostly cloudy 10 - - - -
 
Date/Time
EST
Temp

°C
Wind Pressure Rain
since 9am
mm
Weather Cloud Vis
km
Sea
Height
m
Swell
Dir
 
Speed
knots
Gust
knots
hPa Trend Height
m
Period
s
Dir
03/11:30pm 10.3 NE 8 11 1021.0 - 0.0 - Cloudy 10 - - - -
03/11:00pm 9.0 E 6 7 1021.0 - 0.0 - Partly cloudy 10 - - - -
03/10:30pm 8.5 ENE 5 6 1020.8 - 0.0 - - 10 - - - -
03/10:00pm 9.2 ENE 6 8 1020.8 - 0.0 - Partly cloudy 10 - - - -
03/09:42pm 10.3 NE 6 9 1020.7 - 0.0 - Partly cloudy 10 - - - -
03/09:30pm 10.7 NNE 6 10 1020.5 - 0.0 - Partly cloudy 10 - - - -
03/09:00pm 11.2 N 6 8 1020.2 - 0.0 - Cloudy 10 - - - -
03/08:49pm 11.3 N 8 13 1020.0 - 0.0 - Partly cloudy 10 - - - -
03/08:45pm 11.4 NNE 8 14 1020.0 - 0.0 - Partly cloudy 10 - - - -
03/08:30pm 10.6 ENE 8 9 1019.8 - 0.0 - Partly cloudy 10 - - - -
03/08:10pm 10.4 NE 4 5 1019.5 - 0.0 - Partly cloudy 10 - - - -
03/08:00pm 10.1 NE 4 6 1019.4 - 0.0 - Partly cloudy 10 - - - -
03/07:30pm 9.8 ENE 4 7 1019.1 - 0.0 - Partly cloudy 10 - - - -
03/07:00pm 10.0 ENE 3 5 1018.5 - 0.0 - Partly cloudy 10 - - - -
03/06:30pm 10.9 NW 4 5 1018.0 - 0.0 - Partly cloudy 10 - - - -
03/06:00pm 11.0 NW 6 7 1017.6 - 0.0 - Mostly clear 10 - - - -
03/05:30pm 11.9 WNW 5 8 1017.0 - 0.0 - Partly cloudy 10 - - - -
03/05:00pm 12.6 NW 8 11 1016.4 - 0.0 - Partly cloudy 10 - - - -
03/04:30pm 12.9 NNW 8 11 1015.9 - 0.0 - - 10 - - - -
03/04:00pm 13.1 NW 8 10 1015.5 - 0.0 - - 10 - - - -
03/03:30pm 13.4 NNW 9 13 1015.2 - 0.0 - - 10 - - - -
03/03:00pm 13.9 NNW 12 16 1014.7 - 0.0 - - 10 - - - -
03/02:30pm 16.6 SE 7 11 1014.1 - 0.0 - - 10 - - - -
03/02:00pm 16.5 SE 11 15 1013.6 - 0.0 - - 10 - - - -
03/01:30pm 16.2 SSE 9 12 1013.5 - 0.0 - - 10 - - - -
03/01:00pm 16.0 SE 11 15 1013.5 - 0.0 - - 10 - - - -
03/12:30pm 15.8 SSE 11 15 1013.6 - 0.0 - - 10 - - - -
03/12:00pm 15.2 SSE 11 20 1013.7 - 0.0 - - 10 - - - -
03/11:30am 15.2 SSE 13 17 1013.5 - 0.0 - - 10 - - - -
03/11:00am 14.8 S 12 15 1013.3 - 0.0 - - 10 - - - -
03/10:30am 14.3 S 11 16 1013.2 - 0.0 - - 10 - - - -
03/10:00am 13.4 SSE 13 17 1012.9 - 0.0 - - 10 - - - -
03/09:30am 13.0 SSE 10 13 1012.7 - 0.0 - - 10 - - - -
03/09:00am 11.1 S 9 11 1012.4 - 0.0 - - 10 - - - -
03/08:30am 9.7 S 5 7 1012.1 - 0.0 - - 10 - - - -
03/08:00am 8.3 S 6 8 1011.6 - 0.0 - - 10 - - - -
03/07:30am 7.7 ESE 4 7 1011.0 - 0.0 - Partly cloudy 10 - - - -
03/07:00am 6.1 S 5 6 1010.2 - 0.0 - Cloudy 10 - - - -
03/06:30am 5.6 S 6 7 1009.8 - 0.0 - Partly cloudy 10 - - - -
03/06:00am 6.0 S 6 8 1009.3 - 0.0 - - 10 - - - -
03/05:30am 6.6 S 6 7 1008.8 - 0.0 - Cloudy 10 - - - -
03/05:00am 7.0 SSE 7 8 1008.9 - 0.0 - Cloudy 10 - - - -
03/04:30am 6.8 S 5 6 1008.9 - 0.0 - Cloudy 10 - - - -
03/04:00am 6.9 S 4 5 1008.7 - 0.0 - Cloudy 9 - - - -
03/03:30am 6.7 S 5 6 1008.8 - 0.0 - Cloudy 10 - - - -
03/03:00am 6.9 S 5 6 1008.6 - 0.0 - Mostly cloudy 10 - - - -
03/02:30am 6.5 S 4 6 1009.4 - 0.0 - Cloudy 10 - - - -
03/02:00am 5.8 S 4 6 1009.4 - 0.0 - Partly cloudy 10 - - - -
03/01:30am 5.9 SSE 3 5 1009.7 - 0.0 - - 10 - - - -
03/01:00am 7.2 S 1 3 1009.8 - 0.0 - Partly cloudy 10 - - - -
03/12:30am 7.4 S 4 5 1010.2 - 0.0 - Partly cloudy 10 - - - -
03/12:00am 7.6 S 3 4 1010.3 - 0.0 - Cloudy 10 - - - -
 
Date/Time
EST
Temp

°C
Wind Pressure Rain
since 9am
mm
Weather Cloud Vis
km
Sea
Height
m
Swell
Dir
 
Speed
knots
Gust
knots
hPa Trend Height
m
Period
s
Dir
02/11:30pm 7.9 S 4 4 1010.5 - 0.0 - Cloudy 10 - - - -
02/11:00pm 8.0 SSE 3 4 1010.6 - 0.0 - Partly cloudy 10 - - - -
02/10:30pm 7.9 S 5 6 1010.8 - 0.0 - Partly cloudy 10 - - - -
02/10:00pm 8.1 SSE 6 6 1011.1 - 0.0 - Partly cloudy 10 - - - -
02/09:30pm 8.1 S 4 4 1011.1 - 0.0 - Cloudy 10 - - - -
02/09:00pm 8.0 S 3 4 1011.1 - 0.0 - Cloudy 10 - - - -
02/08:30pm 7.8 SSE 4 5 1011.0 - 0.0 - Cloudy 10 - - - -
02/08:00pm 7.4 S 3 4 1010.9 - 0.0 - Partly cloudy 10 - - - -
02/07:30pm 7.0 SSE 3 4 1010.6 - 0.0 - - 10 - - - -
02/07:00pm 7.9 NE 3 4 1010.3 - 0.0 - - 10 - - - -
02/06:30pm 8.4 CALM 0 0 1010.3 - 0.0 - Partly cloudy 10 - - - -
02/06:00pm 8.8 ENE 5 6 1010.0 - 0.0 - Mostly cloudy 10 - - - -
02/05:30pm 9.7 NE 5 5 1010.1 - 0.0 - Cloudy 10 - - - -
02/05:00pm 10.1 NE 6 7 1010.1 - 0.0 - Cloudy 10 - - - -
02/04:30pm 10.5 NE 6 7 1010.5 - 0.0 - Cloudy 10 - - - -
02/04:00pm 10.6 NNE 6 7 1010.7 - 0.0 - Cloudy 10 - - - -

Other Formats:

Comma delimited format used in spreadsheet applications
http://www.bom.gov.au/fwo/IDV60701/IDV60701.95960.axf

JavaScript Object Notation format (JSON) in row-major order
http://www.bom.gov.au/fwo/IDV60701/IDV60701.95960.json